Relevés horaires Beauvechain (Belgique)


Relevés horaires à Beauvechain - Mardi 29 Janv. 2019
Heure UTC1 Température [°C] Vent [km/h] Hum. [%] Pres.4 [hPa] Visi. [Km] Nébu. [octa] Préc.5 [mm] Cond.
2m. Res. Ros. Dir.2 Vit. Moy. Raf.3
23:00 0.3 0.3 -3.1 E 3.7 -- 5.6 78 994.5(-2.5/3h) 20 -- -- --
22:00 0.4 0.4 -3.0 E 3.7 -- 7.4 78 995.3(-2.5/3h) 20 -- -- --
21:00 0.4 -1.4 -2.4 ESE 5.6 -- 9.3 81 996.3(-2.3/3h) 20 -- -- --
20:00 0.4 -1.4 -2.5 SE 5.6 -- 9.3 81 997.1(-2.8/3h) 20 7/8 -- --
19:00 0.3 -2.2 -2.4 SE 7.4 -- 9.3 82 997.9(-2.5/3h) 20 7/8 -- --
18:00 0.5 -2 -2.5 SE 7.4 -- 16.7 80 998.7(-2.6/3h) 20 7/8 -- --
17:00 1.0 -0.7 -2.8 SSE 5.6 -- 13.0 76 999.9(-2.2/3h) 20 7/8 -- --
16:00 1.7 -0.6 -2.4 SSE 7.4 -- 14.8 74 1000.5(-2.7/3h) 20 7/8 -- --
15:00 3.0 0 -2.1 S 11.1 -- 16.7 69 1001.2(-2.8/3h) 25 6/8 -- --
14:00 3.4 0.5 -1.8 S 11.1 -- 16.7 69 1002.1(-3.3/3h) 25 6/8 -- --
13:00 4.0 1.2 -2.1 SSO 11.1 -- 14.8 64 1003.1(-2.9/3h) 25 3/8 -- --
12:00 3.0 0.4 -1.5 S 9.3 -- 14.8 72 1004.2(-2.7/3h) 25 3/8 -- --
11:00 2.0 -0.7 -1.8 SSO 9.3 -- 13.0 76 1005.5(-2.0/3h) 25 3/8 -- --
10:00 1.2 -1.7 -2.2 S 9.3 -- 13.0 78 1006.2(-1.8/3h) 20 3/8 -- --
09:00 0.2 -2.3 -2.2 S 7.4 -- 13.0 84 1007.1(-1.3/3h) 20 2/8 -- --
08:00 -0.6 -3.2 -2.4 SSO 7.4 -- 9.3 88 1007.7(-0.9/3h) 15 2/8 -- --
07:00 -0.9 -2.9 -2.4 SO 5.6 -- 7.4 90 1008.2(-0.6/3h) 15 2/8 -- --
06:00 -0.5 -2.4 -2.2 SO 5.6 -- 9.3 88 1008.6(-0.6/3h) 15 2/8 0.9/12h
--
05:00 0.0 -1.9 -1.6 SO 5.6 -- 9.3 89 1008.7(-0.5/3h) 16 -- -- --
04:00 0.8 -1.6 -0.5 SO 7.4 -- 9.3 91 1008.7(-0.1/3h) 14 -- -- --
03:00 1.2 -0.5 -- SO 5.6 -- 9.3 -- 1009.1(0.0/3h) 14 -- -- NA
02:00 1.1 -0.6 -- SO 5.6 -- 9.3 -- 1009.1(0.3/3h) 15 -- -- NA
01:00 0.8 -0.9 -- SO 5.6 -- 9.3 -- 1009(0.3/3h) 12 -- -- --
00:00 1.0 -0.7 0.2 SO 5.6 -- 16.7 94 1009(0.7/3h) 9 -- 0.9/6h
NA

1 Coordinated Universal Time. Actuellement il est 12:00 locale et 11:00 UTC.

2 Le vent souffle depuis la direction indiquée vers la direction oposée.

3 Les rafales max. sont disponible 40 min après l'heure du relevé.

4 Pour les stations d'altitude (plus de 600m) le géopotentiel du niveau le plus proche de la pression obligatoire est indiqué.

5 Les stations disposant d'un diffuseur peuvent indiquer "trace". Cela signifie que des précipitations ont touchés le sol mais que la quantité est inférieure à 0.1 mm.

Récapitulatif de la journée
Température [°C] Vent [km/h] Ensoleillement4 [h] Precipitations totale5 [mm] Pression [Hpa]
Min1 Max.2 Moy.3 Max. Min Max.
-0.6 4.3 0 16.7 0 h 0 min 0 994.5 1009.1

1 Température minimale relevée entre 18:00 UTC la veille et 18:00 UTC le jour donné.

2 Température maximale relevée entre 06:00 UTC le jour donné et 06:00 UTC le lendemain.

3 Vent moyen de la journée basé sur les relevés horaires.

4 Ensoleillement en heures relevé entre 06:00 UTC la veille et 06:00 UTC le jour donné.

5 Précipitations totales tombées entre 06:00 UTC la jour donné et 06:00 UTC le lendemain.

Graphiques horaires